Main page
METAR-TAF:

METAR-TAF

Airports :

Beja, Portugal

Beja Airbase

latitude: 38-04-40N, longitude: 007-55-57W, elevation: 193 m

Current weather observation

The report was made 50 minutes ago, at 08:00 UTC
Wind 7 kt from the Northwest
Temperature 16°C
Humidity 94%
Pressure 1015 hPa
Visibility 10 km or more
Scattered clouds at a height of 500 ft

METAR: LPBJ 260800Z 31007KT 9999 SCT005 16/15 Q1015

Time: 09:50 (08:50 UTC)


TAF: missing

Weather observations and forecasts of more than 4000 airports (METAR and TAF reports).

The available stations are represented by yellow and red dots on the map.

Hover mouse over dot to see the name of the station.

Then click to see weather observations and forecasts.

To change the map : click on the green buttons with a black cross to zoom in, on the green button with a dash to zoom out, or on the green arrows for adjacent maps.


METAR-TAF: